Latest Coastal Weather Observations for Minlaton Airport

IDS60701

Issued at 8:45 pm CDT Saturday 25 October 2014 (issued every 10 minutes, with the page automatically refreshed every 10 minutes)

About coastal observations | Map of coastal stations | Coastal observations for SA | Marine services | Other Formats
Station Details ID: 022031 Name: MINLATON AERO Lat: -34.75 Lon: 137.53 Height: 32.0 m
Data from the previous 72 hours. | See also: Recent months at Minlaton Airport
Date/Time
CDT
Temp

°C
Wind Pressure Rain
since 9am
mm
Weather Cloud Vis
km
Sea
Height
m
Swell
Dir
 
Speed
knots
Gust
knots
hPa Trend Height
m
Period
s
Dir
25/08:30pm 15.3 SE 8 11 1016.1 - 0.0 - - - - - - -
25/08:00pm 16.3 SSE 9 11 1015.7 - 0.0 - - - - - - -
25/07:30pm 17.7 WSW 6 7 1015.9 - 0.0 - - - - - - -
25/07:00pm 19.2 SW 6 7 1015.5 - 0.0 - - - - - - -
25/06:30pm 20.1 WSW 6 7 1015.6 - 0.0 - - - - - - -
25/06:00pm 20.3 W 7 9 1015.6 - 0.0 - - - - - - -
25/05:30pm 20.8 W 8 11 1015.5 - 0.0 - - - - - - -
25/05:00pm 21.2 WNW 8 11 1015.4 - 0.0 - - - - - - -
25/04:30pm 21.2 W 8 11 1015.5 - 0.0 - - - - - - -
25/04:00pm 20.6 W 11 15 1015.8 - 0.0 - - - - - - -
25/03:30pm 20.7 W 13 16 1015.9 - 0.0 - - - - - - -
25/03:00pm 20.9 W 14 18 1016.2 - 0.0 - - - - - - -
25/02:30pm 21.1 W 13 18 1016.3 - 0.0 - - - - - - -
25/02:00pm 20.8 W 13 17 1016.5 - 0.0 - - - - - - -
25/01:30pm 21.0 W 12 16 1016.7 - 0.0 - - - - - - -
25/01:00pm 20.8 W 12 16 1016.5 - 0.0 - - - - - - -
25/12:30pm 21.3 WSW 12 17 1016.9 - 0.0 - - - - - - -
25/12:00pm 21.5 W 13 16 1016.9 - 0.0 - - - - - - -
25/11:30am 22.1 WSW 12 15 1017.2 - 0.0 - - - - - - -
25/11:00am 21.3 SSW 8 12 1017.2 - 0.0 - - - - - - -
25/10:30am 20.6 SW 9 13 1017.5 - 0.0 - - - - - - -
25/10:00am 19.8 SSW 9 12 1017.5 - 0.0 - - - - - - -
25/09:30am 19.3 SSW 8 13 1017.8 - 0.0 - - - - - - -
25/09:00am 17.4 S 9 11 1017.9 - 0.0 - - - - - - -
25/08:30am 15.7 SSW 7 9 1018.0 - 0.0 - - - - - - -
25/08:00am 13.5 S 4 6 1017.9 - 0.0 - - - - - - -
25/07:30am 11.5 SSW 4 5 1017.5 - 0.0 - - - - - - -
25/07:00am 9.6 SW 3 4 1017.1 - 0.0 - - - - - - -
25/06:30am 9.2 CALM 0 0 1016.5 - 0.0 - - - - - - -
25/06:00am 10.5 S 3 3 1016.2 - 0.0 - - - - - - -
25/05:30am 9.6 S 4 5 1015.9 - 0.0 - - - - - - -
25/05:00am 9.9 S 7 7 1015.6 - 0.0 - - - - - - -
25/04:30am 10.7 SSW 7 9 1015.2 - 0.0 - - - - - - -
25/04:00am 11.4 S 6 8 1014.8 - 0.0 - - - - - - -
25/03:30am 11.9 SSE 6 7 1014.7 - 0.0 - - - - - - -
25/03:00am 12.2 S 5 7 1015.0 - 0.0 - - - - - - -
25/02:30am 12.9 SSE 7 8 1015.0 - 0.0 - - - - - - -
25/02:00am 13.4 SE 8 10 1015.1 - 0.0 - - - - - - -
25/01:30am 13.9 SSE 8 11 1015.2 - 0.0 - - - - - - -
25/01:00am 14.1 SSE 11 14 1015.5 - 0.0 - - - - - - -
25/12:30am 14.2 S 12 16 1015.4 - 0.0 - - - - - - -
25/12:00am 14.4 S 13 17 1015.5 - 0.0 - - - - - - -
 
Date/Time
CDT
Temp

°C
Wind Pressure Rain
since 9am
mm
Weather Cloud Vis
km
Sea
Height
m
Swell
Dir
 
Speed
knots
Gust
knots
hPa Trend Height
m
Period
s
Dir
24/11:30pm 14.5 S 13 16 1015.6 - 0.0 - - - - - - -
24/11:00pm 14.7 SSE 12 15 1015.6 - 0.0 - - - - - - -
24/10:30pm 15.0 SSE 11 15 1015.6 - 0.0 - - - - - - -
24/10:00pm 15.4 SSE 11 15 1015.6 - 0.0 - - - - - - -
24/09:30pm 15.9 SSE 11 15 1015.4 - 0.0 - - - - - - -
24/09:00pm 16.8 S 11 14 1015.2 - 0.0 - - - - - - -
24/08:30pm 17.7 SSE 11 15 1014.5 - 0.0 - - - - - - -
24/08:00pm 18.6 S 8 11 1014.2 - 0.0 - - - - - - -
24/07:30pm 19.9 S 12 18 1013.7 - 0.0 - - - - - - -
24/07:00pm 22.2 S 14 17 1013.3 - 0.0 - - - - - - -
24/06:30pm 24.8 S 15 19 1012.8 - 0.0 - - - - - - -
24/06:00pm 27.2 S 14 17 1012.6 - 0.0 - - - - - - -
24/05:30pm 28.3 S 9 12 1012.5 - 0.0 - - - - - - -
24/05:00pm 28.9 S 11 15 1012.6 - 0.0 - - - - - - -
24/04:30pm 28.7 SSW 11 13 1012.3 - 0.0 - - - - - - -
24/04:00pm 27.7 SW 10 13 1012.4 - 0.0 - - - - - - -
24/03:30pm 26.0 WSW 11 13 1012.8 - 0.0 - - - - - - -
24/03:00pm 27.4 WSW 12 14 1013.1 - 0.0 - - - - - - -
24/02:30pm 27.9 W 10 13 1013.3 - 0.0 - - - - - - -
24/02:00pm 27.1 WNW 10 14 1013.6 - 0.0 - - - - - - -
24/01:30pm 28.6 WNW 10 14 1013.7 - 0.0 - - - - - - -
24/01:00pm 27.9 NW 10 12 1013.8 - 0.0 - - - - - - -
24/12:30pm 28.6 NW 8 11 1013.9 - 0.0 - - - - - - -
24/12:00pm 28.1 NW 9 13 1014.1 - 0.0 - - - - - - -
24/11:30am 28.6 NW 8 11 1014.2 - 0.0 - - - - - - -
24/11:00am 27.0 NNW 8 11 1014.5 - 0.0 - - - - - - -
24/10:30am 26.0 NNW 9 11 1014.8 - 0.0 - - - - - - -
24/10:00am 24.2 WNW 8 11 1014.7 - 0.0 - - - - - - -
24/09:30am 22.4 NNW 6 9 1014.6 - 0.0 - - - - - - -
24/09:00am 19.7 NNW 4 5 1014.4 - 0.0 - - - - - - -
24/08:30am 18.2 N 5 6 1014.3 - 0.0 - - - - - - -
24/08:00am 16.0 NNE 6 7 1014.0 - 0.0 - - - - - - -
24/07:30am 14.8 NNE 5 7 1013.9 - 0.0 - - - - - - -
24/07:00am 14.2 ENE 6 8 1013.3 - 0.0 - - - - - - -
24/06:30am 13.6 NNE 7 8 1012.9 - 0.0 - - - - - - -
24/06:00am 13.8 NE 7 8 1012.6 - 0.0 - - - - - - -
24/05:30am 13.2 NE 7 8 1012.4 - 0.0 - - - - - - -
24/05:00am 13.4 N 7 8 1012.5 - 0.0 - - - - - - -
24/04:30am 14.3 NNE 5 7 1012.5 - 0.0 - - - - - - -
24/04:00am 14.2 NE 9 12 1012.0 - 0.0 - - - - - - -
24/03:30am 13.5 E 12 14 1011.8 - 0.0 - - - - - - -
24/03:00am 13.5 ENE 9 11 1012.7 - 0.0 - - - - - - -
24/02:30am 13.3 ENE 9 11 1013.1 - 0.0 - - - - - - -
24/02:00am 13.3 E 9 10 1013.3 - 0.0 - - - - - - -
24/01:30am 13.6 E 8 10 1014.2 - 0.0 - - - - - - -
24/01:00am 13.3 ENE 9 11 1014.8 - 0.0 - - - - - - -
24/12:30am 13.1 E 8 10 1014.9 - 0.0 - - - - - - -
24/12:00am 12.2 E 7 8 1015.1 - 0.0 - - - - - - -
 
Date/Time
CDT
Temp

°C
Wind Pressure Rain
since 9am
mm
Weather Cloud Vis
km
Sea
Height
m
Swell
Dir
 
Speed
knots
Gust
knots
hPa Trend Height
m
Period
s
Dir
23/11:30pm 12.1 E 6 7 1015.2 - 0.0 - - - - - - -
23/11:00pm 12.5 E 8 8 1015.5 - 0.0 - - - - - - -
23/10:30pm 12.4 ESE 9 10 1015.7 - 0.0 - - - - - - -
23/10:00pm 12.6 ESE 7 8 1016.0 - 0.0 - - - - - - -
23/09:30pm 12.6 E 8 9 1015.6 - 0.0 - - - - - - -
23/09:00pm 13.0 SE 7 8 1015.6 - 0.0 - - - - - - -
23/08:30pm 13.8 S 6 7 1015.7 - 0.0 - - - - - - -
23/08:00pm 15.8 S 8 10 1015.4 - 0.0 - - - - - - -
23/07:30pm 17.0 S 9 11 1015.2 - 0.0 - - - - - - -
23/07:00pm 18.7 S 10 12 1015.2 - 0.0 - - - - - - -
23/06:30pm 20.1 SSW 11 13 1015.0 - 0.0 - - - - - - -
23/06:00pm 21.4 SSW 11 14 1014.8 - 0.0 - - - - - - -
23/05:30pm 21.5 S 10 15 1014.6 - 0.0 - - - - - - -
23/05:00pm 21.9 S 12 16 1014.5 - 0.0 - - - - - - -
23/04:30pm 23.0 SSW 12 16 1014.6 - 0.0 - - - - - - -
23/04:00pm 23.7 S 14 18 1014.7 - 0.0 - - - - - - -
23/03:30pm 24.5 S 15 20 1014.6 - 0.0 - - - - - - -
23/03:00pm 25.8 SSE 6 17 1014.6 - 0.0 - - - - - - -
23/02:30pm 24.4 SE 6 13 1015.0 - 0.0 - - - - - - -
23/02:00pm 24.9 SE 6 11 1015.4 - 0.0 - - - - - - -
23/01:30pm 23.8 S 8 12 1015.7 - 0.0 - - - - - - -
23/01:00pm 22.9 SE 6 13 1016.1 - 0.0 - - - - - - -
23/12:30pm 22.7 SE 8 12 1016.6 - 0.0 - - - - - - -
23/12:00pm 21.4 ESE 6 10 1017.0 - 0.0 - - - - - - -
23/11:30am 20.4 SE 8 13 1017.5 - 0.0 - - - - - - -
23/11:00am 19.3 SE 9 12 1017.8 - 0.0 - - - - - - -
23/10:30am 18.0 ESE 8 12 1018.3 - 0.0 - - - - - - -
23/10:00am 18.0 SE 10 15 1018.2 - 0.0 - - - - - - -
23/09:30am 17.0 SSE 12 16 1018.2 - 0.0 - - - - - - -
23/09:00am 16.6 SSE 9 14 1018.3 - 0.0 - - - - - - -
23/08:30am 15.9 SE 10 14 1018.3 - 0.0 - - - - - - -
23/08:00am 15.2 SE 12 16 1018.4 - 0.0 - - - - - - -
23/07:30am 15.0 SSE 13 17 1018.4 - 0.0 - - - - - - -
23/07:00am 14.8 SSE 11 15 1018.6 - 0.0 - - - - - - -
23/06:30am 14.6 SSE 13 19 1018.4 - 0.0 - - - - - - -
23/06:00am 14.4 SSE 12 18 1018.0 - 0.0 - - - - - - -
23/05:30am 14.6 SSE 13 18 1018.0 - 0.0 - - - - - - -
23/05:00am 14.5 SSE 13 18 1018.4 - 0.0 - - - - - - -
23/04:30am 14.2 SSE 13 17 1018.0 - 0.0 - - - - - - -
23/04:00am 14.2 SSE 13 17 1018.2 - 0.0 - - - - - - -
23/03:30am 14.0 SSE 17 22 1018.4 - 0.0 - - - - - - -
23/03:00am 14.2 SSE 15 20 1018.5 - 0.0 - - - - - - -
23/02:30am 14.3 SSE 14 18 1018.8 - 0.0 - - - - - - -
23/02:00am 14.4 S 14 19 1019.1 - 0.0 - - - - - - -
23/01:30am 14.4 SSE 15 19 1019.5 - 0.0 - - - - - - -
23/01:00am 14.5 SSE 13 19 1020.1 - 0.0 - - - - - - -
23/12:30am 14.4 S 14 20 1020.2 - 0.0 - - - - - - -
23/12:00am 14.3 SSE 14 21 1020.0 - 0.0 - - - - - - -
 
Date/Time
CDT
Temp

°C
Wind Pressure Rain
since 9am
mm
Weather Cloud Vis
km
Sea
Height
m
Swell
Dir
 
Speed
knots
Gust
knots
hPa Trend Height
m
Period
s
Dir
22/11:30pm 14.1 SSE 16 22 1020.1 - 0.0 - - - - - - -
22/11:00pm 14.2 SSE 17 23 1020.2 - 0.0 - - - - - - -
22/10:30pm 14.4 S 17 26 1020.5 - 0.0 - - - - - - -
22/10:00pm 14.7 S 16 19 1020.3 - 0.0 - - - - - - -
22/09:30pm 14.7 S 17 24 1020.3 - 0.0 - - - - - - -
22/09:00pm 14.9 S 17 23 1020.3 - 0.0 - - - - - - -

Other Formats:

Comma delimited format used in spreadsheet applications
http://www.bom.gov.au/fwo/IDS60701/IDS60701.95659.axf

JavaScript Object Notation format (JSON) in row-major order
http://www.bom.gov.au/fwo/IDS60701/IDS60701.95659.json